sensor_id;sensor_type;location;lat;lon;timestamp;temperature;humidity
66740;DHT22;53653;52.188;8.602;2023-05-10T00:01:07;15.63;88.70
66740;DHT22;53653;52.188;8.602;2023-05-10T00:03:33;15.66;88.56
66740;DHT22;53653;52.188;8.602;2023-05-10T00:05:58;15.70;88.39
66740;DHT22;53653;52.188;8.602;2023-05-10T00:08:24;15.81;87.87
66740;DHT22;53653;52.188;8.602;2023-05-10T00:10:49;15.80;87.74
66740;DHT22;53653;52.188;8.602;2023-05-10T00:13:15;15.76;87.72
66740;DHT22;53653;52.188;8.602;2023-05-10T00:15:41;15.74;88.16
66740;DHT22;53653;52.188;8.602;2023-05-10T00:18:06;15.74;88.50
66740;DHT22;53653;52.188;8.602;2023-05-10T00:20:32;15.74;88.45
66740;DHT22;53653;52.188;8.602;2023-05-10T00:22:57;15.70;88.43
66740;DHT22;53653;52.188;8.602;2023-05-10T00:25:23;15.69;88.70
66740;DHT22;53653;52.188;8.602;2023-05-10T00:27:48;15.59;89.03
66740;DHT22;53653;52.188;8.602;2023-05-10T00:30:15;15.53;89.19
66740;DHT22;53653;52.188;8.602;2023-05-10T00:32:40;15.43;89.61
66740;DHT22;53653;52.188;8.602;2023-05-10T00:35:06;15.42;90.06
66740;DHT22;53653;52.188;8.602;2023-05-10T00:37:32;15.33;90.40
66740;DHT22;53653;52.188;8.602;2023-05-10T00:39:58;15.38;90.30
66740;DHT22;53653;52.188;8.602;2023-05-10T00:42:23;15.35;90.19
66740;DHT22;53653;52.188;8.602;2023-05-10T00:44:51;15.21;91.96
66740;DHT22;53653;52.188;8.602;2023-05-10T00:47:18;15.02;92.43
66740;DHT22;53653;52.188;8.602;2023-05-10T00:49:44;14.95;92.90
66740;DHT22;53653;52.188;8.602;2023-05-10T00:52:10;14.96;92.98
66740;DHT22;53653;52.188;8.602;2023-05-10T00:54:36;14.96;93.12
66740;DHT22;53653;52.188;8.602;2023-05-10T00:57:02;14.98;93.21
66740;DHT22;53653;52.188;8.602;2023-05-10T00:59:29;15.05;92.53
66740;DHT22;53653;52.188;8.602;2023-05-10T01:01:54;15.14;91.72
66740;DHT22;53653;52.188;8.602;2023-05-10T01:04:21;15.18;91.16
66740;DHT22;53653;52.188;8.602;2023-05-10T01:06:51;15.14;91.23
66740;DHT22;53653;52.188;8.602;2023-05-10T01:09:19;15.21;91.28
66740;DHT22;53653;52.188;8.602;2023-05-10T01:11:45;15.11;91.42
66740;DHT22;53653;52.188;8.602;2023-05-10T01:14:10;15.09;91.56
66740;DHT22;53653;52.188;8.602;2023-05-10T01:16:38;15.02;92.07
66740;DHT22;53653;52.188;8.602;2023-05-10T01:19:15;14.95;92.05
66740;DHT22;53653;52.188;8.602;2023-05-10T01:40:57;15.15;90.96
66740;DHT22;53653;52.188;8.602;2023-05-10T01:43:33;15.15;90.93
66740;DHT22;53653;52.188;8.602;2023-05-10T01:46:05;15.16;91.05
66740;DHT22;53653;52.188;8.602;2023-05-10T01:48:40;15.12;91.33
66740;DHT22;53653;52.188;8.602;2023-05-10T01:51:12;15.04;91.81
66740;DHT22;53653;52.188;8.602;2023-05-10T01:53:39;15.05;91.63
66740;DHT22;53653;52.188;8.602;2023-05-10T01:56:06;15.09;91.45
66740;DHT22;53653;52.188;8.602;2023-05-10T01:58:33;15.04;91.56
66740;DHT22;53653;52.188;8.602;2023-05-10T02:01:01;14.99;91.59
66740;DHT22;53653;52.188;8.602;2023-05-10T02:03:29;14.85;92.28
66740;DHT22;53653;52.188;8.602;2023-05-10T02:05:57;14.78;93.69
66740;DHT22;53653;52.188;8.602;2023-05-10T02:08:23;14.85;93.08
66740;DHT22;53653;52.188;8.602;2023-05-10T02:10:52;14.92;92.51
66740;DHT22;53653;52.188;8.602;2023-05-10T02:13:19;14.96;91.86
66740;DHT22;53653;52.188;8.602;2023-05-10T02:15:48;14.98;91.55
66740;DHT22;53653;52.188;8.602;2023-05-10T02:18:14;15.02;91.36
66740;DHT22;53653;52.188;8.602;2023-05-10T02:20:42;14.98;91.60
66740;DHT22;53653;52.188;8.602;2023-05-10T02:23:09;15.01;91.46
66740;DHT22;53653;52.188;8.602;2023-05-10T02:25:35;14.99;91.24
66740;DHT22;53653;52.188;8.602;2023-05-10T02:28:03;14.96;91.36
66740;DHT22;53653;52.188;8.602;2023-05-10T02:30:32;14.95;91.44
66740;DHT22;53653;52.188;8.602;2023-05-10T02:32:59;14.92;91.58
66740;DHT22;53653;52.188;8.602;2023-05-10T02:35:26;14.85;91.93
66740;DHT22;53653;52.188;8.602;2023-05-10T02:37:53;14.77;92.29
66740;DHT22;53653;52.188;8.602;2023-05-10T02:40:19;14.77;92.26
66740;DHT22;53653;52.188;8.602;2023-05-10T02:42:48;14.84;91.83
66740;DHT22;53653;52.188;8.602;2023-05-10T02:45:19;14.96;90.93
66740;DHT22;53653;52.188;8.602;2023-05-10T02:47:45;14.99;90.69
66740;DHT22;53653;52.188;8.602;2023-05-10T02:50:11;15.01;90.39
66740;DHT22;53653;52.188;8.602;2023-05-10T02:52:40;14.98;89.78
66740;DHT22;53653;52.188;8.602;2023-05-10T02:55:09;14.92;89.99
66740;DHT22;53653;52.188;8.602;2023-05-10T02:57:41;14.80;90.20
66740;DHT22;53653;52.188;8.602;2023-05-10T03:00:07;14.77;90.75
66740;DHT22;53653;52.188;8.602;2023-05-10T03:02:33;14.71;90.96
66740;DHT22;53653;52.188;8.602;2023-05-10T03:04:59;14.64;91.04
66740;DHT22;53653;52.188;8.602;2023-05-10T03:07:26;14.61;91.45
66740;DHT22;53653;52.188;8.602;2023-05-10T03:09:51;14.46;91.52
66740;DHT22;53653;52.188;8.602;2023-05-10T03:12:57;14.30;92.21
66740;DHT22;53653;52.188;8.602;2023-05-10T03:15:29;14.43;92.30
66740;DHT22;53653;52.188;8.602;2023-05-10T03:18:02;14.46;91.95
66740;DHT22;53653;52.188;8.602;2023-05-10T03:20:54;14.50;91.66
66740;DHT22;53653;52.188;8.602;2023-05-10T03:23:46;14.50;91.55
66740;DHT22;53653;52.188;8.602;2023-05-10T03:26:20;14.47;91.76
66740;DHT22;53653;52.188;8.602;2023-05-10T03:28:49;14.50;91.52
66740;DHT22;53653;52.188;8.602;2023-05-10T03:31:17;14.46;91.64
66740;DHT22;53653;52.188;8.602;2023-05-10T03:33:47;14.43;91.99
66740;DHT22;53653;52.188;8.602;2023-05-10T03:36:13;14.46;91.84
66740;DHT22;53653;52.188;8.602;2023-05-10T03:38:39;14.46;91.80
66740;DHT22;53653;52.188;8.602;2023-05-10T03:41:04;14.48;91.89
66740;DHT22;53653;52.188;8.602;2023-05-10T03:43:33;14.44;91.92
66740;DHT22;53653;52.188;8.602;2023-05-10T03:46:02;14.46;91.88
66740;DHT22;53653;52.188;8.602;2023-05-10T03:48:27;14.43;91.83
66740;DHT22;53653;52.188;8.602;2023-05-10T03:50:53;14.51;91.66
66740;DHT22;53653;52.188;8.602;2023-05-10T03:53:18;14.44;91.80
66740;DHT22;53653;52.188;8.602;2023-05-10T03:55:44;14.48;91.73
66740;DHT22;53653;52.188;8.602;2023-05-10T03:58:10;14.44;91.97
66740;DHT22;53653;52.188;8.602;2023-05-10T04:00:36;14.41;92.09
66740;DHT22;53653;52.188;8.602;2023-05-10T04:03:02;14.41;92.17
66740;DHT22;53653;52.188;8.602;2023-05-10T04:05:28;14.33;92.52
66740;DHT22;53653;52.188;8.602;2023-05-10T04:07:54;14.40;92.15
66740;DHT22;53653;52.188;8.602;2023-05-10T04:10:20;14.34;92.38
66740;DHT22;53653;52.188;8.602;2023-05-10T04:12:46;14.34;92.57
66740;DHT22;53653;52.188;8.602;2023-05-10T04:15:12;14.33;92.55
66740;DHT22;53653;52.188;8.602;2023-05-10T04:17:37;14.29;92.68
66740;DHT22;53653;52.188;8.602;2023-05-10T04:20:04;14.19;93.24
66740;DHT22;53653;52.188;8.602;2023-05-10T04:22:29;14.29;92.94
66740;DHT22;53653;52.188;8.602;2023-05-10T04:24:55;14.32;92.72
66740;DHT22;53653;52.188;8.602;2023-05-10T04:27:21;14.30;92.92
66740;DHT22;53653;52.188;8.602;2023-05-10T04:29:47;14.25;92.12
66740;DHT22;53653;52.188;8.602;2023-05-10T04:32:12;14.15;92.06
66740;DHT22;53653;52.188;8.602;2023-05-10T04:34:38;14.06;92.09
66740;DHT22;53653;52.188;8.602;2023-05-10T04:37:04;13.86;91.94
66740;DHT22;53653;52.188;8.602;2023-05-10T04:39:29;13.81;92.38
66740;DHT22;53653;52.188;8.602;2023-05-10T04:41:55;13.69;92.69
66740;DHT22;53653;52.188;8.602;2023-05-10T04:44:20;13.65;92.86
66740;DHT22;53653;52.188;8.602;2023-05-10T04:46:46;13.65;92.91
66740;DHT22;53653;52.188;8.602;2023-05-10T04:49:12;13.61;92.96
66740;DHT22;53653;52.188;8.602;2023-05-10T04:51:38;13.57;93.18
66740;DHT22;53653;52.188;8.602;2023-05-10T04:54:04;13.54;93.15
66740;DHT22;53653;52.188;8.602;2023-05-10T04:56:29;13.51;93.28
66740;DHT22;53653;52.188;8.602;2023-05-10T04:58:55;13.46;93.23
66740;DHT22;53653;52.188;8.602;2023-05-10T05:01:21;13.41;93.51
66740;DHT22;53653;52.188;8.602;2023-05-10T05:03:46;13.40;93.60
66740;DHT22;53653;52.188;8.602;2023-05-10T05:06:12;13.34;93.68
66740;DHT22;53653;52.188;8.602;2023-05-10T05:08:37;13.30;93.87
66740;DHT22;53653;52.188;8.602;2023-05-10T05:11:03;13.33;93.87
66740;DHT22;53653;52.188;8.602;2023-05-10T05:13:29;13.33;93.87
66740;DHT22;53653;52.188;8.602;2023-05-10T05:15:54;13.34;94.05
66740;DHT22;53653;52.188;8.602;2023-05-10T05:18:20;13.34;93.80
66740;DHT22;53653;52.188;8.602;2023-05-10T05:20:46;13.31;93.80
66740;DHT22;53653;52.188;8.602;2023-05-10T05:23:12;13.33;93.83
66740;DHT22;53653;52.188;8.602;2023-05-10T05:25:37;13.31;93.69
66740;DHT22;53653;52.188;8.602;2023-05-10T05:28:03;13.27;93.52
66740;DHT22;53653;52.188;8.602;2023-05-10T05:30:29;13.26;93.62
66740;DHT22;53653;52.188;8.602;2023-05-10T05:32:54;13.21;93.60
66740;DHT22;53653;52.188;8.602;2023-05-10T05:35:20;13.31;93.68
66740;DHT22;53653;52.188;8.602;2023-05-10T05:37:46;13.31;93.71
66740;DHT22;53653;52.188;8.602;2023-05-10T05:40:14;13.34;93.82
66740;DHT22;53653;52.188;8.602;2023-05-10T05:42:40;13.38;93.92
66740;DHT22;53653;52.188;8.602;2023-05-10T05:45:07;13.38;93.50
66740;DHT22;53653;52.188;8.602;2023-05-10T05:47:34;13.44;93.86
66740;DHT22;53653;52.188;8.602;2023-05-10T05:49:59;13.47;93.54
66740;DHT22;53653;52.188;8.602;2023-05-10T05:52:25;13.44;93.30
66740;DHT22;53653;52.188;8.602;2023-05-10T05:54:51;13.37;93.48
66740;DHT22;53653;52.188;8.602;2023-05-10T05:57:16;13.38;93.54
66740;DHT22;53653;52.188;8.602;2023-05-10T05:59:42;13.37;93.51
66740;DHT22;53653;52.188;8.602;2023-05-10T06:02:09;13.31;93.48
66740;DHT22;53653;52.188;8.602;2023-05-10T06:04:35;13.30;93.64
66740;DHT22;53653;52.188;8.602;2023-05-10T06:07:01;13.27;93.29
66740;DHT22;53653;52.188;8.602;2023-05-10T06:09:26;13.31;93.58
66740;DHT22;53653;52.188;8.602;2023-05-10T06:11:52;13.27;93.30
66740;DHT22;53653;52.188;8.602;2023-05-10T06:14:20;13.31;93.32
66740;DHT22;53653;52.188;8.602;2023-05-10T06:16:46;13.31;93.32
66740;DHT22;53653;52.188;8.602;2023-05-10T06:19:12;13.40;93.26
66740;DHT22;53653;52.188;8.602;2023-05-10T06:21:37;13.41;93.13
66740;DHT22;53653;52.188;8.602;2023-05-10T06:24:03;13.46;93.41
66740;DHT22;53653;52.188;8.602;2023-05-10T06:26:29;13.57;93.19
66740;DHT22;53653;52.188;8.602;2023-05-10T06:28:55;13.55;93.21
66740;DHT22;53653;52.188;8.602;2023-05-10T06:31:21;13.59;93.05
66740;DHT22;53653;52.188;8.602;2023-05-10T06:33:46;13.57;92.65
66740;DHT22;53653;52.188;8.602;2023-05-10T06:36:12;13.55;92.71
66740;DHT22;53653;52.188;8.602;2023-05-10T06:38:38;13.59;92.74
66740;DHT22;53653;52.188;8.602;2023-05-10T06:41:04;13.64;92.29
66740;DHT22;53653;52.188;8.602;2023-05-10T06:43:29;13.61;92.63
66740;DHT22;53653;52.188;8.602;2023-05-10T06:45:55;13.62;92.28
66740;DHT22;53653;52.188;8.602;2023-05-10T06:48:21;13.68;92.59
66740;DHT22;53653;52.188;8.602;2023-05-10T06:50:46;13.62;92.27
66740;DHT22;53653;52.188;8.602;2023-05-10T06:53:12;13.62;92.53
66740;DHT22;53653;52.188;8.602;2023-05-10T06:55:39;13.69;92.39
66740;DHT22;53653;52.188;8.602;2023-05-10T06:58:04;13.65;92.03
66740;DHT22;53653;52.188;8.602;2023-05-10T07:00:30;13.62;92.15
66740;DHT22;53653;52.188;8.602;2023-05-10T07:02:55;13.72;92.14
66740;DHT22;53653;52.188;8.602;2023-05-10T07:05:21;13.69;91.82
66740;DHT22;53653;52.188;8.602;2023-05-10T07:07:47;13.74;91.97
66740;DHT22;53653;52.188;8.602;2023-05-10T07:10:13;13.74;91.53
66740;DHT22;53653;52.188;8.602;2023-05-10T07:12:38;13.77;91.64
66740;DHT22;53653;52.188;8.602;2023-05-10T07:15:04;13.79;91.80
66740;DHT22;53653;52.188;8.602;2023-05-10T07:17:30;13.94;91.72
66740;DHT22;53653;52.188;8.602;2023-05-10T07:19:56;14.05;91.68
66740;DHT22;53653;52.188;8.602;2023-05-10T07:22:22;14.13;91.14
66740;DHT22;53653;52.188;8.602;2023-05-10T07:24:47;14.17;90.56
66740;DHT22;53653;52.188;8.602;2023-05-10T07:27:13;14.22;90.65
66740;DHT22;53653;52.188;8.602;2023-05-10T07:29:38;14.26;90.73
66740;DHT22;53653;52.188;8.602;2023-05-10T07:32:04;14.25;90.71
66740;DHT22;53653;52.188;8.602;2023-05-10T07:34:31;14.26;90.25
66740;DHT22;53653;52.188;8.602;2023-05-10T07:37:00;14.32;89.74
66740;DHT22;53653;52.188;8.602;2023-05-10T07:39:27;14.36;90.13
66740;DHT22;53653;52.188;8.602;2023-05-10T07:41:53;14.44;90.11
66740;DHT22;53653;52.188;8.602;2023-05-10T07:44:18;14.57;89.33
66740;DHT22;53653;52.188;8.602;2023-05-10T07:46:46;14.73;89.34
66740;DHT22;53653;52.188;8.602;2023-05-10T07:49:13;14.74;88.62
66740;DHT22;53653;52.188;8.602;2023-05-10T07:51:39;14.65;88.61
66740;DHT22;53653;52.188;8.602;2023-05-10T07:54:05;14.47;88.74
66740;DHT22;53653;52.188;8.602;2023-05-10T07:56:31;14.44;89.35
66740;DHT22;53653;52.188;8.602;2023-05-10T07:59:03;14.36;89.46
66740;DHT22;53653;52.188;8.602;2023-05-10T08:01:31;14.38;89.22
66740;DHT22;53653;52.188;8.602;2023-05-10T08:04:01;14.43;89.14
66740;DHT22;53653;52.188;8.602;2023-05-10T08:06:27;14.54;89.35
66740;DHT22;53653;52.188;8.602;2023-05-10T08:08:55;14.61;89.50
66740;DHT22;53653;52.188;8.602;2023-05-10T08:11:22;14.73;88.01
66740;DHT22;53653;52.188;8.602;2023-05-10T08:13:49;14.81;88.50
66740;DHT22;53653;52.188;8.602;2023-05-10T08:16:16;14.88;88.25
66740;DHT22;53653;52.188;8.602;2023-05-10T08:18:43;15.01;87.83
66740;DHT22;53653;52.188;8.602;2023-05-10T08:21:10;15.14;87.12
66740;DHT22;53653;52.188;8.602;2023-05-10T08:23:36;15.16;87.03
66740;DHT22;53653;52.188;8.602;2023-05-10T08:26:02;15.16;87.04
66740;DHT22;53653;52.188;8.602;2023-05-10T08:28:28;15.19;87.30
66740;DHT22;53653;52.188;8.602;2023-05-10T08:30:53;15.25;87.31
66740;DHT22;53653;52.188;8.602;2023-05-10T08:33:19;15.38;87.16
66740;DHT22;53653;52.188;8.602;2023-05-10T08:35:45;15.62;86.17
66740;DHT22;53653;52.188;8.602;2023-05-10T08:38:10;15.70;85.61
66740;DHT22;53653;52.188;8.602;2023-05-10T08:40:41;15.76;85.37
66740;DHT22;53653;52.188;8.602;2023-05-10T08:43:10;15.70;85.49
66740;DHT22;53653;52.188;8.602;2023-05-10T08:45:41;15.67;85.29
66740;DHT22;53653;52.188;8.602;2023-05-10T08:48:09;15.84;85.64
66740;DHT22;53653;52.188;8.602;2023-05-10T08:50:39;15.90;85.24
66740;DHT22;53653;52.188;8.602;2023-05-10T08:53:09;15.84;84.43
66740;DHT22;53653;52.188;8.602;2023-05-10T08:55:35;15.87;84.13
66740;DHT22;53653;52.188;8.602;2023-05-10T08:58:05;16.00;84.22
66740;DHT22;53653;52.188;8.602;2023-05-10T09:00:31;16.11;83.92
66740;DHT22;53653;52.188;8.602;2023-05-10T09:03:03;16.02;83.64
66740;DHT22;53653;52.188;8.602;2023-05-10T09:05:29;15.97;84.59
66740;DHT22;53653;52.188;8.602;2023-05-10T09:07:54;15.80;84.75
66740;DHT22;53653;52.188;8.602;2023-05-10T09:10:20;15.73;85.30
66740;DHT22;53653;52.188;8.602;2023-05-10T09:12:48;15.73;85.33
66740;DHT22;53653;52.188;8.602;2023-05-10T09:15:15;15.96;84.95
66740;DHT22;53653;52.188;8.602;2023-05-10T09:17:42;16.36;84.36
66740;DHT22;53653;52.188;8.602;2023-05-10T09:20:07;16.45;82.22
66740;DHT22;53653;52.188;8.602;2023-05-10T09:22:34;16.70;82.33
66740;DHT22;53653;52.188;8.602;2023-05-10T09:27:29;17.17;80.15
66740;DHT22;53653;52.188;8.602;2023-05-10T09:29:54;17.30;80.25
66740;DHT22;53653;52.188;8.602;2023-05-10T09:32:20;17.41;78.46
66740;DHT22;53653;52.188;8.602;2023-05-10T09:34:49;17.55;77.81
66740;DHT22;53653;52.188;8.602;2023-05-10T09:37:14;17.42;78.95
66740;DHT22;53653;52.188;8.602;2023-05-10T09:39:40;17.35;79.10
66740;DHT22;53653;52.188;8.602;2023-05-10T09:42:08;17.39;79.21
66740;DHT22;53653;52.188;8.602;2023-05-10T09:44:34;17.34;77.92
66740;DHT22;53653;52.188;8.602;2023-05-10T09:47:01;17.31;78.85
66740;DHT22;53653;52.188;8.602;2023-05-10T09:49:26;17.54;78.16
66740;DHT22;53653;52.188;8.602;2023-05-10T09:52:06;17.72;77.57
66740;DHT22;53653;52.188;8.602;2023-05-10T09:54:32;18.03;76.94
66740;DHT22;53653;52.188;8.602;2023-05-10T09:56:58;18.29;76.25
66740;DHT22;53653;52.188;8.602;2023-05-10T09:59:27;18.36;76.55
66740;DHT22;53653;52.188;8.602;2023-05-10T10:01:57;17.87;75.80
66740;DHT22;53653;52.188;8.602;2023-05-10T10:04:23;17.76;76.30
66740;DHT22;53653;52.188;8.602;2023-05-10T10:07:02;17.74;76.61
66740;DHT22;53653;52.188;8.602;2023-05-10T10:09:29;18.07;75.75
66740;DHT22;53653;52.188;8.602;2023-05-10T10:11:54;17.95;74.71
66740;DHT22;53653;52.188;8.602;2023-05-10T10:14:22;18.54;72.89
66740;DHT22;53653;52.188;8.602;2023-05-10T10:16:49;18.48;72.74
66740;DHT22;53653;52.188;8.602;2023-05-10T10:19:18;19.26;70.14
66740;DHT22;53653;52.188;8.602;2023-05-10T10:21:43;19.34;69.92
66740;DHT22;53653;52.188;8.602;2023-05-10T10:24:08;18.91;70.50
66740;DHT22;53653;52.188;8.602;2023-05-10T10:26:35;18.72;71.63
66740;DHT22;53653;52.188;8.602;2023-05-10T10:34:33;18.84;71.94
66740;DHT22;53653;52.188;8.602;2023-05-10T10:37:04;19.03;69.42
66740;DHT22;53653;52.188;8.602;2023-05-10T10:39:30;18.96;70.82
66740;DHT22;53653;52.188;8.602;2023-05-10T10:41:57;19.30;69.53
66740;DHT22;53653;52.188;8.602;2023-05-10T10:44:34;19.20;69.23
66740;DHT22;53653;52.188;8.602;2023-05-10T10:52:30;19.49;68.41
66740;DHT22;53653;52.188;8.602;2023-05-10T10:57:48;19.63;67.66
66740;DHT22;53653;52.188;8.602;2023-05-10T11:00:36;19.50;66.84
66740;DHT22;53653;52.188;8.602;2023-05-10T11:03:05;19.50;66.93
66740;DHT22;53653;52.188;8.602;2023-05-10T11:08:20;19.84;65.95
66740;DHT22;53653;52.188;8.602;2023-05-10T11:13:42;19.74;64.47
66740;DHT22;53653;52.188;8.602;2023-05-10T11:16:12;19.84;64.15
66740;DHT22;53653;52.188;8.602;2023-05-10T11:18:37;19.85;63.85
66740;DHT22;53653;52.188;8.602;2023-05-10T11:21:03;20.28;63.95
66740;DHT22;53653;52.188;8.602;2023-05-10T11:23:52;20.56;62.52
66740;DHT22;53653;52.188;8.602;2023-05-10T11:26:18;20.53;62.29
66740;DHT22;53653;52.188;8.602;2023-05-10T11:28:48;20.49;62.67
66740;DHT22;53653;52.188;8.602;2023-05-10T11:31:15;20.37;62.55
66740;DHT22;53653;52.188;8.602;2023-05-10T11:36:15;20.94;61.30
66740;DHT22;53653;52.188;8.602;2023-05-10T11:38:40;20.62;61.58
66740;DHT22;53653;52.188;8.602;2023-05-10T11:41:08;20.32;63.00
66740;DHT22;53653;52.188;8.602;2023-05-10T11:43:34;20.45;62.98
66740;DHT22;53653;52.188;8.602;2023-05-10T11:46:02;20.25;62.92
66740;DHT22;53653;52.188;8.602;2023-05-10T11:48:29;20.08;64.28
66740;DHT22;53653;52.188;8.602;2023-05-10T11:50:55;20.42;64.07
66740;DHT22;53653;52.188;8.602;2023-05-10T11:53:22;20.87;64.27
66740;DHT22;53653;52.188;8.602;2023-05-10T11:55:48;21.27;62.43
66740;DHT22;53653;52.188;8.602;2023-05-10T11:58:13;21.07;61.57
66740;DHT22;53653;52.188;8.602;2023-05-10T12:00:39;20.77;61.47
66740;DHT22;53653;52.188;8.602;2023-05-10T12:03:05;21.24;62.62
66740;DHT22;53653;52.188;8.602;2023-05-10T12:05:33;21.21;60.43
66740;DHT22;53653;52.188;8.602;2023-05-10T12:08:15;21.52;59.95
66740;DHT22;53653;52.188;8.602;2023-05-10T12:10:44;21.28;59.49
66740;DHT22;53653;52.188;8.602;2023-05-10T12:13:11;21.32;58.39
66740;DHT22;53653;52.188;8.602;2023-05-10T12:15:38;21.34;59.40
66740;DHT22;53653;52.188;8.602;2023-05-10T12:18:03;21.52;58.70
66740;DHT22;53653;52.188;8.602;2023-05-10T12:20:30;21.83;58.10
66740;DHT22;53653;52.188;8.602;2023-05-10T12:22:58;21.73;59.11
66740;DHT22;53653;52.188;8.602;2023-05-10T12:25:29;21.65;58.82
66740;DHT22;53653;52.188;8.602;2023-05-10T12:27:57;21.34;59.21
66740;DHT22;53653;52.188;8.602;2023-05-10T12:30:26;21.39;59.31
66740;DHT22;53653;52.188;8.602;2023-05-10T12:32:53;21.45;58.70
66740;DHT22;53653;52.188;8.602;2023-05-10T12:35:20;21.52;59.86
66740;DHT22;53653;52.188;8.602;2023-05-10T12:37:50;21.56;57.88
66740;DHT22;53653;52.188;8.602;2023-05-10T12:40:15;21.52;60.06
66740;DHT22;53653;52.188;8.602;2023-05-10T12:42:41;21.56;57.18
66740;DHT22;53653;52.188;8.602;2023-05-10T12:45:07;21.53;57.91
66740;DHT22;53653;52.188;8.602;2023-05-10T12:47:33;21.51;58.28
66740;DHT22;53653;52.188;8.602;2023-05-10T12:50:00;21.28;58.28
66740;DHT22;53653;52.188;8.602;2023-05-10T12:52:27;21.43;59.36
66740;DHT22;53653;52.188;8.602;2023-05-10T12:54:52;21.49;58.29
66740;DHT22;53653;52.188;8.602;2023-05-10T12:57:19;21.49;57.97
66740;DHT22;53653;52.188;8.602;2023-05-10T12:59:45;21.78;58.29
66740;DHT22;53653;52.188;8.602;2023-05-10T13:02:10;21.39;57.08
66740;DHT22;53653;52.188;8.602;2023-05-10T13:04:36;21.18;57.74
66740;DHT22;53653;52.188;8.602;2023-05-10T13:07:05;20.88;58.40
66740;DHT22;53653;52.188;8.602;2023-05-10T13:09:31;20.80;60.22
66740;DHT22;53653;52.188;8.602;2023-05-10T13:11:56;20.65;60.07
66740;DHT22;53653;52.188;8.602;2023-05-10T13:14:22;20.40;59.62
66740;DHT22;53653;52.188;8.602;2023-05-10T13:16:47;20.29;60.75
66740;DHT22;53653;52.188;8.602;2023-05-10T13:19:13;20.19;61.53
66740;DHT22;53653;52.188;8.602;2023-05-10T13:21:39;20.04;61.78
66740;DHT22;53653;52.188;8.602;2023-05-10T13:24:06;20.02;61.65
66740;DHT22;53653;52.188;8.602;2023-05-10T13:26:32;20.08;61.38
66740;DHT22;53653;52.188;8.602;2023-05-10T13:28:57;20.04;61.62
66740;DHT22;53653;52.188;8.602;2023-05-10T13:31:23;20.04;61.75
66740;DHT22;53653;52.188;8.602;2023-05-10T13:33:48;20.07;61.81
66740;DHT22;53653;52.188;8.602;2023-05-10T13:36:14;20.14;62.27
66740;DHT22;53653;52.188;8.602;2023-05-10T13:38:40;20.05;61.48
66740;DHT22;53653;52.188;8.602;2023-05-10T13:41:05;19.99;60.98
66740;DHT22;53653;52.188;8.602;2023-05-10T13:43:31;19.97;60.73
66740;DHT22;53653;52.188;8.602;2023-05-10T13:45:56;19.89;62.54
66740;DHT22;53653;52.188;8.602;2023-05-10T13:48:22;19.75;63.75
66740;DHT22;53653;52.188;8.602;2023-05-10T13:50:47;19.74;64.25
66740;DHT22;53653;52.188;8.602;2023-05-10T13:53:12;19.71;64.85
66740;DHT22;53653;52.188;8.602;2023-05-10T13:55:38;19.73;64.48
66740;DHT22;53653;52.188;8.602;2023-05-10T13:58:03;19.49;64.50
66740;DHT22;53653;52.188;8.602;2023-05-10T14:00:29;19.47;64.87
66740;DHT22;53653;52.188;8.602;2023-05-10T14:02:55;19.33;65.34
66740;DHT22;53653;52.188;8.602;2023-05-10T14:05:20;19.29;65.23
66740;DHT22;53653;52.188;8.602;2023-05-10T14:07:46;19.15;64.62
66740;DHT22;53653;52.188;8.602;2023-05-10T14:10:12;18.95;65.44
66740;DHT22;53653;52.188;8.602;2023-05-10T14:12:37;18.84;65.81
66740;DHT22;53653;52.188;8.602;2023-05-10T14:15:03;18.85;65.49
66740;DHT22;53653;52.188;8.602;2023-05-10T14:17:31;18.76;65.91
66740;DHT22;53653;52.188;8.602;2023-05-10T14:19:57;18.72;66.57
66740;DHT22;53653;52.188;8.602;2023-05-10T14:22:23;18.68;66.94
66740;DHT22;53653;52.188;8.602;2023-05-10T14:24:48;18.62;69.18
66740;DHT22;53653;52.188;8.602;2023-05-10T14:27:14;18.40;73.39
66740;DHT22;53653;52.188;8.602;2023-05-10T14:29:40;18.29;75.26
66740;DHT22;53653;52.188;8.602;2023-05-10T14:32:05;18.03;76.31
66740;DHT22;53653;52.188;8.602;2023-05-10T14:34:32;17.92;76.80
66740;DHT22;53653;52.188;8.602;2023-05-10T14:36:58;17.76;77.72
66740;DHT22;53653;52.188;8.602;2023-05-10T14:39:23;17.74;77.65
66740;DHT22;53653;52.188;8.602;2023-05-10T14:41:49;17.68;78.30
66740;DHT22;53653;52.188;8.602;2023-05-10T14:44:16;17.61;78.12
66740;DHT22;53653;52.188;8.602;2023-05-10T14:46:42;17.68;78.28
66740;DHT22;53653;52.188;8.602;2023-05-10T14:49:07;17.47;78.56
66740;DHT22;53653;52.188;8.602;2023-05-10T14:51:33;17.65;78.12
66740;DHT22;53653;52.188;8.602;2023-05-10T14:53:59;17.45;79.72
66740;DHT22;53653;52.188;8.602;2023-05-10T14:56:24;17.47;79.46
66740;DHT22;53653;52.188;8.602;2023-05-10T14:58:51;17.52;79.76
66740;DHT22;53653;52.188;8.602;2023-05-10T15:01:16;17.47;79.87
66740;DHT22;53653;52.188;8.602;2023-05-10T15:03:42;17.58;79.86
66740;DHT22;53653;52.188;8.602;2023-05-10T15:06:08;17.62;80.01
66740;DHT22;53653;52.188;8.602;2023-05-10T15:08:34;17.71;79.84
66740;DHT22;53653;52.188;8.602;2023-05-10T15:10:59;17.66;79.24
66740;DHT22;53653;52.188;8.602;2023-05-10T15:13:25;17.65;78.20
66740;DHT22;53653;52.188;8.602;2023-05-10T15:15:50;17.65;78.49
66740;DHT22;53653;52.188;8.602;2023-05-10T15:18:16;17.66;79.30
66740;DHT22;53653;52.188;8.602;2023-05-10T15:20:41;17.66;79.74
66740;DHT22;53653;52.188;8.602;2023-05-10T15:23:07;17.62;79.90
66740;DHT22;53653;52.188;8.602;2023-05-10T15:25:33;17.59;80.42
66740;DHT22;53653;52.188;8.602;2023-05-10T15:28:01;17.58;79.99
66740;DHT22;53653;52.188;8.602;2023-05-10T15:30:27;17.55;77.94
66740;DHT22;53653;52.188;8.602;2023-05-10T15:32:53;17.56;78.45
66740;DHT22;53653;52.188;8.602;2023-05-10T15:35:18;17.55;76.88
66740;DHT22;53653;52.188;8.602;2023-05-10T15:37:44;17.58;77.03
66740;DHT22;53653;52.188;8.602;2023-05-10T15:40:10;17.59;77.03
66740;DHT22;53653;52.188;8.602;2023-05-10T15:42:35;17.61;77.83
66740;DHT22;53653;52.188;8.602;2023-05-10T15:45:01;17.61;77.33
66740;DHT22;53653;52.188;8.602;2023-05-10T15:47:26;17.61;77.11
66740;DHT22;53653;52.188;8.602;2023-05-10T15:49:55;17.49;79.08
66740;DHT22;53653;52.188;8.602;2023-05-10T15:52:20;17.35;79.22
66740;DHT22;53653;52.188;8.602;2023-05-10T15:54:48;17.35;78.33
66740;DHT22;53653;52.188;8.602;2023-05-10T15:57:14;17.35;78.39
66740;DHT22;53653;52.188;8.602;2023-05-10T15:59:39;17.28;79.29
66740;DHT22;53653;52.188;8.602;2023-05-10T16:02:06;17.26;78.81
66740;DHT22;53653;52.188;8.602;2023-05-10T16:04:31;17.17;79.17
66740;DHT22;53653;52.188;8.602;2023-05-10T16:06:57;17.27;78.21
66740;DHT22;53653;52.188;8.602;2023-05-10T16:09:23;17.38;78.03
66740;DHT22;53653;52.188;8.602;2023-05-10T16:11:48;17.47;77.49